sensor_id;sensor_type;location;lat;lon;timestamp;temperature;humidity
78649;DHT22;67962;47.310;9.642;2024-03-06T00:00:57;7.90;77.60
78649;DHT22;67962;47.310;9.642;2024-03-06T00:03:23;7.90;77.70
78649;DHT22;67962;47.310;9.642;2024-03-06T00:05:49;7.90;77.40
78649;DHT22;67962;47.310;9.642;2024-03-06T00:08:14;7.80;77.40
78649;DHT22;67962;47.310;9.642;2024-03-06T00:10:41;7.90;77.60
78649;DHT22;67962;47.310;9.642;2024-03-06T00:13:06;7.90;77.60
78649;DHT22;67962;47.310;9.642;2024-03-06T00:15:32;7.90;77.30
78649;DHT22;67962;47.310;9.642;2024-03-06T00:17:59;7.90;77.50
78649;DHT22;67962;47.310;9.642;2024-03-06T00:20:25;7.80;77.50
78649;DHT22;67962;47.310;9.642;2024-03-06T00:22:51;7.80;78.00
78649;DHT22;67962;47.310;9.642;2024-03-06T00:25:17;7.80;78.00
78649;DHT22;67962;47.310;9.642;2024-03-06T00:27:42;7.70;78.10
78649;DHT22;67962;47.310;9.642;2024-03-06T00:30:08;7.70;78.00
78649;DHT22;67962;47.310;9.642;2024-03-06T00:32:34;7.70;78.40
78649;DHT22;67962;47.310;9.642;2024-03-06T00:35:00;7.60;78.30
78649;DHT22;67962;47.310;9.642;2024-03-06T00:37:25;7.70;78.50
78649;DHT22;67962;47.310;9.642;2024-03-06T00:39:51;7.70;78.40
78649;DHT22;67962;47.310;9.642;2024-03-06T00:42:17;7.80;77.70
78649;DHT22;67962;47.310;9.642;2024-03-06T00:44:43;7.80;77.80
78649;DHT22;67962;47.310;9.642;2024-03-06T00:47:09;7.70;77.90
78649;DHT22;67962;47.310;9.642;2024-03-06T00:49:34;7.70;77.90
78649;DHT22;67962;47.310;9.642;2024-03-06T00:52:00;7.80;78.20
78649;DHT22;67962;47.310;9.642;2024-03-06T00:54:25;7.80;78.00
78649;DHT22;67962;47.310;9.642;2024-03-06T00:56:51;7.80;77.60
78649;DHT22;67962;47.310;9.642;2024-03-06T00:59:17;7.80;78.00
78649;DHT22;67962;47.310;9.642;2024-03-06T01:01:43;7.70;78.00
78649;DHT22;67962;47.310;9.642;2024-03-06T01:04:09;7.70;78.20
78649;DHT22;67962;47.310;9.642;2024-03-06T01:06:34;7.60;78.20
78649;DHT22;67962;47.310;9.642;2024-03-06T01:09:00;7.60;78.30
78649;DHT22;67962;47.310;9.642;2024-03-06T01:11:26;7.60;78.20
78649;DHT22;67962;47.310;9.642;2024-03-06T01:13:52;7.60;77.70
78649;DHT22;67962;47.310;9.642;2024-03-06T01:16:18;7.60;78.00
78649;DHT22;67962;47.310;9.642;2024-03-06T01:18:44;7.70;78.10
78649;DHT22;67962;47.310;9.642;2024-03-06T01:21:10;7.70;77.70
78649;DHT22;67962;47.310;9.642;2024-03-06T01:23:35;7.80;77.40
78649;DHT22;67962;47.310;9.642;2024-03-06T01:26:01;7.70;76.90
78649;DHT22;67962;47.310;9.642;2024-03-06T01:28:27;7.60;77.20
78649;DHT22;67962;47.310;9.642;2024-03-06T01:30:52;7.60;77.30
78649;DHT22;67962;47.310;9.642;2024-03-06T01:33:18;7.50;77.50
78649;DHT22;67962;47.310;9.642;2024-03-06T01:35:44;7.40;77.60
78649;DHT22;67962;47.310;9.642;2024-03-06T01:38:09;7.30;78.50
78649;DHT22;67962;47.310;9.642;2024-03-06T01:40:35;7.20;79.00
78649;DHT22;67962;47.310;9.642;2024-03-06T01:43:01;7.20;79.10
78649;DHT22;67962;47.310;9.642;2024-03-06T01:45:27;7.30;79.30
78649;DHT22;67962;47.310;9.642;2024-03-06T01:47:53;7.30;79.20
78649;DHT22;67962;47.310;9.642;2024-03-06T01:50:19;7.30;78.80
78649;DHT22;67962;47.310;9.642;2024-03-06T01:52:46;7.30;78.40
78649;DHT22;67962;47.310;9.642;2024-03-06T01:55:12;7.20;78.00
78649;DHT22;67962;47.310;9.642;2024-03-06T01:57:39;7.20;77.30
78649;DHT22;67962;47.310;9.642;2024-03-06T02:00:08;7.20;76.90
78649;DHT22;67962;47.310;9.642;2024-03-06T02:02:40;7.10;77.40
78649;DHT22;67962;47.310;9.642;2024-03-06T02:05:06;7.20;77.60
78649;DHT22;67962;47.310;9.642;2024-03-06T02:07:32;7.10;77.80
78649;DHT22;67962;47.310;9.642;2024-03-06T02:09:59;7.10;78.10
78649;DHT22;67962;47.310;9.642;2024-03-06T02:12:24;7.10;78.20
78649;DHT22;67962;47.310;9.642;2024-03-06T02:14:50;7.10;78.10
78649;DHT22;67962;47.310;9.642;2024-03-06T02:17:16;7.20;77.90
78649;DHT22;67962;47.310;9.642;2024-03-06T02:19:43;7.20;77.70
78649;DHT22;67962;47.310;9.642;2024-03-06T02:22:09;7.20;77.30
78649;DHT22;67962;47.310;9.642;2024-03-06T02:24:36;7.10;77.80
78649;DHT22;67962;47.310;9.642;2024-03-06T02:27:05;7.20;77.50
78649;DHT22;67962;47.310;9.642;2024-03-06T02:29:31;7.20;77.60
78649;DHT22;67962;47.310;9.642;2024-03-06T02:31:58;7.20;76.30
78649;DHT22;67962;47.310;9.642;2024-03-06T02:34:24;7.20;77.40
78649;DHT22;67962;47.310;9.642;2024-03-06T02:36:51;7.10;76.60
78649;DHT22;67962;47.310;9.642;2024-03-06T02:39:17;7.10;77.00
78649;DHT22;67962;47.310;9.642;2024-03-06T02:41:43;7.10;76.50
78649;DHT22;67962;47.310;9.642;2024-03-06T02:44:09;7.10;76.60
78649;DHT22;67962;47.310;9.642;2024-03-06T02:46:35;7.10;76.70
78649;DHT22;67962;47.310;9.642;2024-03-06T02:49:00;7.00;75.40
78649;DHT22;67962;47.310;9.642;2024-03-06T02:51:26;6.90;76.10
78649;DHT22;67962;47.310;9.642;2024-03-06T02:53:52;6.80;77.00
78649;DHT22;67962;47.310;9.642;2024-03-06T02:56:19;6.80;76.60
78649;DHT22;67962;47.310;9.642;2024-03-06T02:58:45;6.80;76.70
78649;DHT22;67962;47.310;9.642;2024-03-06T03:01:11;6.60;77.40
78649;DHT22;67962;47.310;9.642;2024-03-06T03:03:40;6.60;77.80
78649;DHT22;67962;47.310;9.642;2024-03-06T03:06:06;6.70;77.70
78649;DHT22;67962;47.310;9.642;2024-03-06T03:08:32;6.70;77.80
78649;DHT22;67962;47.310;9.642;2024-03-06T03:10:58;6.70;77.30
78649;DHT22;67962;47.310;9.642;2024-03-06T03:13:23;6.70;77.10
78649;DHT22;67962;47.310;9.642;2024-03-06T03:15:49;6.80;75.90
78649;DHT22;67962;47.310;9.642;2024-03-06T03:18:16;6.70;75.30
78649;DHT22;67962;47.310;9.642;2024-03-06T03:20:41;6.60;76.00
78649;DHT22;67962;47.310;9.642;2024-03-06T03:23:07;6.50;76.60
78649;DHT22;67962;47.310;9.642;2024-03-06T03:25:37;6.40;77.30
78649;DHT22;67962;47.310;9.642;2024-03-06T03:28:03;6.50;77.60
78649;DHT22;67962;47.310;9.642;2024-03-06T03:30:29;6.40;76.60
78649;DHT22;67962;47.310;9.642;2024-03-06T03:32:55;6.40;77.30
78649;DHT22;67962;47.310;9.642;2024-03-06T03:35:20;6.50;77.20
78649;DHT22;67962;47.310;9.642;2024-03-06T03:37:53;6.60;77.20
78649;DHT22;67962;47.310;9.642;2024-03-06T03:40:21;6.60;76.80
78649;DHT22;67962;47.310;9.642;2024-03-06T03:42:46;6.70;76.40
78649;DHT22;67962;47.310;9.642;2024-03-06T03:45:13;6.60;76.60
78649;DHT22;67962;47.310;9.642;2024-03-06T03:47:39;6.70;76.60
78649;DHT22;67962;47.310;9.642;2024-03-06T03:50:05;6.80;76.20
78649;DHT22;67962;47.310;9.642;2024-03-06T03:52:31;6.80;74.90
78649;DHT22;67962;47.310;9.642;2024-03-06T03:54:56;6.60;75.30
78649;DHT22;67962;47.310;9.642;2024-03-06T03:57:22;6.60;75.60
78649;DHT22;67962;47.310;9.642;2024-03-06T03:59:48;6.40;76.60
78649;DHT22;67962;47.310;9.642;2024-03-06T04:02:13;6.30;76.20
78649;DHT22;67962;47.310;9.642;2024-03-06T04:04:39;6.30;76.30
78649;DHT22;67962;47.310;9.642;2024-03-06T04:07:05;6.30;77.30
78649;DHT22;67962;47.310;9.642;2024-03-06T04:09:32;6.40;77.40
78649;DHT22;67962;47.310;9.642;2024-03-06T04:12:04;6.40;76.90
78649;DHT22;67962;47.310;9.642;2024-03-06T04:14:30;6.50;77.00
78649;DHT22;67962;47.310;9.642;2024-03-06T04:16:56;6.60;77.20
78649;DHT22;67962;47.310;9.642;2024-03-06T04:19:22;6.60;76.80
78649;DHT22;67962;47.310;9.642;2024-03-06T04:21:47;6.60;76.80
78649;DHT22;67962;47.310;9.642;2024-03-06T04:24:13;6.70;77.00
78649;DHT22;67962;47.310;9.642;2024-03-06T04:26:39;6.70;76.00
78649;DHT22;67962;47.310;9.642;2024-03-06T04:29:05;6.70;76.10
78649;DHT22;67962;47.310;9.642;2024-03-06T04:31:31;6.60;76.00
78649;DHT22;67962;47.310;9.642;2024-03-06T04:33:56;6.60;76.60
78649;DHT22;67962;47.310;9.642;2024-03-06T04:36:22;6.60;76.50
78649;DHT22;67962;47.310;9.642;2024-03-06T04:38:49;6.50;76.70
78649;DHT22;67962;47.310;9.642;2024-03-06T04:41:14;6.60;76.80
78649;DHT22;67962;47.310;9.642;2024-03-06T04:43:40;6.60;76.50
78649;DHT22;67962;47.310;9.642;2024-03-06T04:46:12;6.60;74.90
78649;DHT22;67962;47.310;9.642;2024-03-06T04:48:39;6.40;76.60
78649;DHT22;67962;47.310;9.642;2024-03-06T04:51:04;6.30;77.00
78649;DHT22;67962;47.310;9.642;2024-03-06T04:53:30;6.40;76.80
78649;DHT22;67962;47.310;9.642;2024-03-06T04:55:56;6.40;76.70
78649;DHT22;67962;47.310;9.642;2024-03-06T04:58:21;6.40;76.90
78649;DHT22;67962;47.310;9.642;2024-03-06T05:00:47;6.40;76.80
78649;DHT22;67962;47.310;9.642;2024-03-06T05:03:13;6.50;76.60
78649;DHT22;67962;47.310;9.642;2024-03-06T05:05:38;6.50;76.50
78649;DHT22;67962;47.310;9.642;2024-03-06T05:08:04;6.50;76.40
78649;DHT22;67962;47.310;9.642;2024-03-06T05:10:32;6.60;76.50
78649;DHT22;67962;47.310;9.642;2024-03-06T05:12:58;6.60;76.10
78649;DHT22;67962;47.310;9.642;2024-03-06T05:15:23;6.60;76.20
78649;DHT22;67962;47.310;9.642;2024-03-06T05:17:49;6.60;76.40
78649;DHT22;67962;47.310;9.642;2024-03-06T05:20:15;6.60;76.30
78649;DHT22;67962;47.310;9.642;2024-03-06T05:22:42;6.70;76.10
78649;DHT22;67962;47.310;9.642;2024-03-06T05:25:07;6.70;75.70
78649;DHT22;67962;47.310;9.642;2024-03-06T05:27:33;6.50;76.00
78649;DHT22;67962;47.310;9.642;2024-03-06T05:29:59;6.40;76.70
78649;DHT22;67962;47.310;9.642;2024-03-06T05:32:25;6.30;76.50
78649;DHT22;67962;47.310;9.642;2024-03-06T05:34:50;6.40;76.50
78649;DHT22;67962;47.310;9.642;2024-03-06T05:37:16;6.40;76.60
78649;DHT22;67962;47.310;9.642;2024-03-06T05:39:42;6.40;77.10
78649;DHT22;67962;47.310;9.642;2024-03-06T05:42:08;6.40;77.30
78649;DHT22;67962;47.310;9.642;2024-03-06T05:44:34;6.40;77.20
78649;DHT22;67962;47.310;9.642;2024-03-06T05:47:01;6.40;77.90
78649;DHT22;67962;47.310;9.642;2024-03-06T05:49:27;6.40;78.10
78649;DHT22;67962;47.310;9.642;2024-03-06T05:51:53;6.40;77.30
78649;DHT22;67962;47.310;9.642;2024-03-06T05:54:22;6.40;77.50
78649;DHT22;67962;47.310;9.642;2024-03-06T05:56:49;6.40;76.50
78649;DHT22;67962;47.310;9.642;2024-03-06T05:59:15;6.30;76.80
78649;DHT22;67962;47.310;9.642;2024-03-06T06:01:41;6.30;77.20
78649;DHT22;67962;47.310;9.642;2024-03-06T06:04:08;6.20;78.00
78649;DHT22;67962;47.310;9.642;2024-03-06T06:06:35;6.20;78.20
78649;DHT22;67962;47.310;9.642;2024-03-06T06:09:00;6.20;78.50
78649;DHT22;67962;47.310;9.642;2024-03-06T06:11:26;6.20;78.10
78649;DHT22;67962;47.310;9.642;2024-03-06T06:13:52;6.30;78.20
78649;DHT22;67962;47.310;9.642;2024-03-06T06:16:20;6.30;78.50
78649;DHT22;67962;47.310;9.642;2024-03-06T06:18:46;6.40;78.60
78649;DHT22;67962;47.310;9.642;2024-03-06T06:21:12;6.40;78.60
78649;DHT22;67962;47.310;9.642;2024-03-06T06:23:38;6.40;78.20
78649;DHT22;67962;47.310;9.642;2024-03-06T06:26:03;6.40;77.80
78649;DHT22;67962;47.310;9.642;2024-03-06T06:28:29;6.40;77.80
78649;DHT22;67962;47.310;9.642;2024-03-06T06:30:55;6.40;76.90
78649;DHT22;67962;47.310;9.642;2024-03-06T06:33:20;6.30;77.80
78649;DHT22;67962;47.310;9.642;2024-03-06T06:35:47;6.30;77.90
78649;DHT22;67962;47.310;9.642;2024-03-06T06:38:12;6.30;77.70
78649;DHT22;67962;47.310;9.642;2024-03-06T06:40:38;6.30;77.70
78649;DHT22;67962;47.310;9.642;2024-03-06T06:43:06;6.40;77.70
78649;DHT22;67962;47.310;9.642;2024-03-06T06:45:32;6.40;78.00
78649;DHT22;67962;47.310;9.642;2024-03-06T06:47:57;6.40;78.10
78649;DHT22;67962;47.310;9.642;2024-03-06T06:50:23;6.50;77.70
78649;DHT22;67962;47.310;9.642;2024-03-06T06:52:51;6.60;77.60
78649;DHT22;67962;47.310;9.642;2024-03-06T06:55:17;6.60;78.20
78649;DHT22;67962;47.310;9.642;2024-03-06T06:57:43;6.60;78.40
78649;DHT22;67962;47.310;9.642;2024-03-06T07:00:09;6.60;78.80
78649;DHT22;67962;47.310;9.642;2024-03-06T07:02:39;6.60;78.90
78649;DHT22;67962;47.310;9.642;2024-03-06T07:05:05;6.60;79.20
78649;DHT22;67962;47.310;9.642;2024-03-06T07:07:31;6.60;79.10
78649;DHT22;67962;47.310;9.642;2024-03-06T07:09:57;6.60;79.20
78649;DHT22;67962;47.310;9.642;2024-03-06T07:12:23;6.70;79.00
78649;DHT22;67962;47.310;9.642;2024-03-06T07:14:48;6.60;79.10
78649;DHT22;67962;47.310;9.642;2024-03-06T07:17:14;6.70;79.20
78649;DHT22;67962;47.310;9.642;2024-03-06T07:19:40;6.70;79.90
78649;DHT22;67962;47.310;9.642;2024-03-06T07:22:05;6.80;78.90
78649;DHT22;67962;47.310;9.642;2024-03-06T07:24:31;6.90;78.90
78649;DHT22;67962;47.310;9.642;2024-03-06T07:26:57;7.00;78.30
78649;DHT22;67962;47.310;9.642;2024-03-06T07:29:22;7.00;78.60
78649;DHT22;67962;47.310;9.642;2024-03-06T07:31:48;7.10;78.40
78649;DHT22;67962;47.310;9.642;2024-03-06T07:34:14;7.30;78.10
78649;DHT22;67962;47.310;9.642;2024-03-06T07:36:40;7.40;77.60
78649;DHT22;67962;47.310;9.642;2024-03-06T07:39:06;7.30;77.10
78649;DHT22;67962;47.310;9.642;2024-03-06T07:41:32;7.30;77.40
78649;DHT22;67962;47.310;9.642;2024-03-06T07:43:59;7.30;77.40
78649;DHT22;67962;47.310;9.642;2024-03-06T07:46:28;7.30;77.60
78649;DHT22;67962;47.310;9.642;2024-03-06T07:48:53;7.10;77.50
78649;DHT22;67962;47.310;9.642;2024-03-06T07:51:20;7.10;77.70
78649;DHT22;67962;47.310;9.642;2024-03-06T07:53:46;7.40;79.70
78649;DHT22;67962;47.310;9.642;2024-03-06T07:56:12;7.40;77.80
78649;DHT22;67962;47.310;9.642;2024-03-06T07:58:38;7.30;77.80
78649;DHT22;67962;47.310;9.642;2024-03-06T08:01:04;7.30;78.00
78649;DHT22;67962;47.310;9.642;2024-03-06T08:03:30;7.30;78.20
78649;DHT22;67962;47.310;9.642;2024-03-06T08:05:55;7.30;77.30
78649;DHT22;67962;47.310;9.642;2024-03-06T08:08:21;7.20;77.30
78649;DHT22;67962;47.310;9.642;2024-03-06T08:10:47;7.20;77.50
78649;DHT22;67962;47.310;9.642;2024-03-06T08:13:14;7.40;77.50
78649;DHT22;67962;47.310;9.642;2024-03-06T08:15:40;7.50;77.10
78649;DHT22;67962;47.310;9.642;2024-03-06T08:18:06;7.60;76.80
78649;DHT22;67962;47.310;9.642;2024-03-06T08:20:32;7.60;76.60
78649;DHT22;67962;47.310;9.642;2024-03-06T08:22:58;7.70;76.40
78649;DHT22;67962;47.310;9.642;2024-03-06T08:25:24;7.70;76.30
78649;DHT22;67962;47.310;9.642;2024-03-06T08:27:49;7.80;76.20
78649;DHT22;67962;47.310;9.642;2024-03-06T08:30:15;7.80;76.10
78649;DHT22;67962;47.310;9.642;2024-03-06T08:32:41;7.80;75.90
78649;DHT22;67962;47.310;9.642;2024-03-06T08:35:13;7.70;76.00
78649;DHT22;67962;47.310;9.642;2024-03-06T08:37:39;7.50;76.60
78649;DHT22;67962;47.310;9.642;2024-03-06T08:40:06;7.40;77.30
78649;DHT22;67962;47.310;9.642;2024-03-06T08:42:46;7.40;77.70
78649;DHT22;67962;47.310;9.642;2024-03-06T08:45:18;7.40;78.00
78649;DHT22;67962;47.310;9.642;2024-03-06T08:47:44;7.30;78.30
78649;DHT22;67962;47.310;9.642;2024-03-06T08:50:11;7.30;78.40
78649;DHT22;67962;47.310;9.642;2024-03-06T08:52:38;7.40;78.40
78649;DHT22;67962;47.310;9.642;2024-03-06T08:55:04;7.40;78.70
78649;DHT22;67962;47.310;9.642;2024-03-06T08:57:31;7.40;78.60
78649;DHT22;67962;47.310;9.642;2024-03-06T08:59:58;7.40;78.80
78649;DHT22;67962;47.310;9.642;2024-03-06T09:02:23;7.50;78.60
78649;DHT22;67962;47.310;9.642;2024-03-06T09:04:49;7.50;78.30
78649;DHT22;67962;47.310;9.642;2024-03-06T09:07:17;7.60;78.20
78649;DHT22;67962;47.310;9.642;2024-03-06T09:09:43;7.60;78.30
78649;DHT22;67962;47.310;9.642;2024-03-06T09:12:10;7.70;78.00
78649;DHT22;67962;47.310;9.642;2024-03-06T09:14:37;7.80;77.10
78649;DHT22;67962;47.310;9.642;2024-03-06T09:17:03;7.90;77.10
78649;DHT22;67962;47.310;9.642;2024-03-06T09:19:30;7.80;77.80
78649;DHT22;67962;47.310;9.642;2024-03-06T09:21:56;7.80;78.10
78649;DHT22;67962;47.310;9.642;2024-03-06T09:24:23;7.80;78.00
78649;DHT22;67962;47.310;9.642;2024-03-06T09:26:49;7.80;77.90
78649;DHT22;67962;47.310;9.642;2024-03-06T09:29:16;7.80;78.20
78649;DHT22;67962;47.310;9.642;2024-03-06T09:31:42;7.90;78.70
78649;DHT22;67962;47.310;9.642;2024-03-06T09:34:08;8.00;77.70
78649;DHT22;67962;47.310;9.642;2024-03-06T09:36:37;8.20;77.40
78649;DHT22;67962;47.310;9.642;2024-03-06T09:39:02;8.20;77.10
78649;DHT22;67962;47.310;9.642;2024-03-06T09:41:31;8.30;77.10
78649;DHT22;67962;47.310;9.642;2024-03-06T09:43:59;8.40;76.90
78649;DHT22;67962;47.310;9.642;2024-03-06T09:46:26;8.30;76.30
78649;DHT22;67962;47.310;9.642;2024-03-06T09:48:53;8.30;76.40
78649;DHT22;67962;47.310;9.642;2024-03-06T09:51:19;8.40;76.30
78649;DHT22;67962;47.310;9.642;2024-03-06T09:53:46;8.40;76.00
78649;DHT22;67962;47.310;9.642;2024-03-06T09:56:17;8.30;76.10
78649;DHT22;67962;47.310;9.642;2024-03-06T09:58:45;8.40;75.80
78649;DHT22;67962;47.310;9.642;2024-03-06T10:01:12;8.30;75.50
78649;DHT22;67962;47.310;9.642;2024-03-06T10:03:39;8.20;75.10
78649;DHT22;67962;47.310;9.642;2024-03-06T10:06:08;8.20;74.00
78649;DHT22;67962;47.310;9.642;2024-03-06T10:08:34;8.00;74.30
78649;DHT22;67962;47.310;9.642;2024-03-06T10:11:00;7.90;74.90
78649;DHT22;67962;47.310;9.642;2024-03-06T10:13:26;7.80;75.70
78649;DHT22;67962;47.310;9.642;2024-03-06T10:16:00;7.90;75.70
78649;DHT22;67962;47.310;9.642;2024-03-06T10:18:27;7.90;75.70
78649;DHT22;67962;47.310;9.642;2024-03-06T10:20:53;7.90;75.40
78649;DHT22;67962;47.310;9.642;2024-03-06T10:23:19;8.00;75.10
78649;DHT22;67962;47.310;9.642;2024-03-06T10:25:49;8.00;74.80
78649;DHT22;67962;47.310;9.642;2024-03-06T10:28:19;8.00;74.70
78649;DHT22;67962;47.310;9.642;2024-03-06T10:30:45;8.00;75.50
78649;DHT22;67962;47.310;9.642;2024-03-06T10:33:15;7.90;74.40
78649;DHT22;67962;47.310;9.642;2024-03-06T10:35:46;7.80;75.00
78649;DHT22;67962;47.310;9.642;2024-03-06T10:38:12;7.80;75.30
78649;DHT22;67962;47.310;9.642;2024-03-06T10:40:40;7.60;74.30
78649;DHT22;67962;47.310;9.642;2024-03-06T10:43:07;7.50;74.80
78649;DHT22;67962;47.310;9.642;2024-03-06T10:45:46;7.50;76.00
78649;DHT22;67962;47.310;9.642;2024-03-06T10:48:14;7.60;75.40
78649;DHT22;67962;47.310;9.642;2024-03-06T10:50:40;7.70;75.60
78649;DHT22;67962;47.310;9.642;2024-03-06T10:53:10;7.70;75.60
78649;DHT22;67962;47.310;9.642;2024-03-06T10:55:36;7.70;74.80
78649;DHT22;67962;47.310;9.642;2024-03-06T10:58:07;7.70;75.20
78649;DHT22;67962;47.310;9.642;2024-03-06T11:00:40;7.70;75.40
78649;DHT22;67962;47.310;9.642;2024-03-06T11:03:07;7.70;75.10
78649;DHT22;67962;47.310;9.642;2024-03-06T11:05:42;7.70;75.60
78649;DHT22;67962;47.310;9.642;2024-03-06T11:08:11;7.80;75.90
78649;DHT22;67962;47.310;9.642;2024-03-06T11:10:41;7.90;75.80
78649;DHT22;67962;47.310;9.642;2024-03-06T11:13:25;8.10;75.50
78649;DHT22;67962;47.310;9.642;2024-03-06T11:15:52;8.10;75.00
78649;DHT22;67962;47.310;9.642;2024-03-06T11:23:29;8.40;74.00
78649;DHT22;67962;47.310;9.642;2024-03-06T11:25:55;8.40;73.50
78649;DHT22;67962;47.310;9.642;2024-03-06T11:28:28;8.30;73.60
78649;DHT22;67962;47.310;9.642;2024-03-06T11:30:55;8.30;74.00
78649;DHT22;67962;47.310;9.642;2024-03-06T11:33:23;8.40;73.70
78649;DHT22;67962;47.310;9.642;2024-03-06T11:36:26;8.40;72.50
78649;DHT22;67962;47.310;9.642;2024-03-06T11:38:57;8.10;71.60
78649;DHT22;67962;47.310;9.642;2024-03-06T11:44:01;8.00;72.80
78649;DHT22;67962;47.310;9.642;2024-03-06T11:49:16;7.90;74.00
78649;DHT22;67962;47.310;9.642;2024-03-06T11:51:49;7.90;74.60
78649;DHT22;67962;47.310;9.642;2024-03-06T11:54:15;8.00;74.90
78649;DHT22;67962;47.310;9.642;2024-03-06T11:56:42;8.10;74.60
78649;DHT22;67962;47.310;9.642;2024-03-06T11:59:09;8.20;74.20
78649;DHT22;67962;47.310;9.642;2024-03-06T12:01:36;8.30;74.10
78649;DHT22;67962;47.310;9.642;2024-03-06T12:04:03;8.40;73.70
78649;DHT22;67962;47.310;9.642;2024-03-06T12:06:31;8.40;72.80
78649;DHT22;67962;47.310;9.642;2024-03-06T12:08:58;8.30;73.20
78649;DHT22;67962;47.310;9.642;2024-03-06T12:11:24;8.20;72.10
78649;DHT22;67962;47.310;9.642;2024-03-06T12:13:54;8.00;72.90
78649;DHT22;67962;47.310;9.642;2024-03-06T12:16:21;8.10;73.90
78649;DHT22;67962;47.310;9.642;2024-03-06T12:18:52;8.20;73.60
78649;DHT22;67962;47.310;9.642;2024-03-06T12:21:19;8.30;73.50
78649;DHT22;67962;47.310;9.642;2024-03-06T12:23:44;8.10;74.20
78649;DHT22;67962;47.310;9.642;2024-03-06T12:26:10;8.00;74.40
78649;DHT22;67962;47.310;9.642;2024-03-06T12:28:39;8.00;74.90
78649;DHT22;67962;47.310;9.642;2024-03-06T12:31:06;8.00;75.60
78649;DHT22;67962;47.310;9.642;2024-03-06T12:33:33;8.00;74.90
78649;DHT22;67962;47.310;9.642;2024-03-06T12:36:06;8.00;74.90
78649;DHT22;67962;47.310;9.642;2024-03-06T12:38:36;8.00;75.40
78649;DHT22;67962;47.310;9.642;2024-03-06T12:41:02;8.00;75.50
78649;DHT22;67962;47.310;9.642;2024-03-06T12:43:29;7.90;74.00
78649;DHT22;67962;47.310;9.642;2024-03-06T12:45:55;7.80;74.00
78649;DHT22;67962;47.310;9.642;2024-03-06T12:48:23;8.00;74.70
78649;DHT22;67962;47.310;9.642;2024-03-06T12:50:49;8.10;74.10
78649;DHT22;67962;47.310;9.642;2024-03-06T12:53:23;8.20;73.90
78649;DHT22;67962;47.310;9.642;2024-03-06T12:55:48;8.30;73.60
78649;DHT22;67962;47.310;9.642;2024-03-06T12:58:15;8.40;73.00
78649;DHT22;67962;47.310;9.642;2024-03-06T13:00:41;8.50;73.00
78649;DHT22;67962;47.310;9.642;2024-03-06T13:03:07;8.60;72.70
78649;DHT22;67962;47.310;9.642;2024-03-06T13:05:32;8.60;72.90
78649;DHT22;67962;47.310;9.642;2024-03-06T13:07:58;8.80;73.60
78649;DHT22;67962;47.310;9.642;2024-03-06T13:10:27;8.90;72.80
78649;DHT22;67962;47.310;9.642;2024-03-06T13:12:53;8.80;72.40
78649;DHT22;67962;47.310;9.642;2024-03-06T13:15:19;8.80;72.90
78649;DHT22;67962;47.310;9.642;2024-03-06T13:17:44;8.80;72.10
78649;DHT22;67962;47.310;9.642;2024-03-06T13:20:10;8.70;71.60
78649;DHT22;67962;47.310;9.642;2024-03-06T13:22:39;8.60;72.60
78649;DHT22;67962;47.310;9.642;2024-03-06T13:25:05;8.50;72.20
78649;DHT22;67962;47.310;9.642;2024-03-06T13:27:31;8.50;73.00
78649;DHT22;67962;47.310;9.642;2024-03-06T13:29:57;8.40;73.80
78649;DHT22;67962;47.310;9.642;2024-03-06T13:32:23;8.30;74.60
78649;DHT22;67962;47.310;9.642;2024-03-06T13:34:49;8.30;75.50
78649;DHT22;67962;47.310;9.642;2024-03-06T13:37:15;8.20;75.30
78649;DHT22;67962;47.310;9.642;2024-03-06T13:39:41;8.20;75.30
78649;DHT22;67962;47.310;9.642;2024-03-06T13:42:08;8.30;75.30
78649;DHT22;67962;47.310;9.642;2024-03-06T13:44:35;8.30;75.30
78649;DHT22;67962;47.310;9.642;2024-03-06T13:47:01;8.20;74.30
78649;DHT22;67962;47.310;9.642;2024-03-06T13:49:40;8.10;75.50
78649;DHT22;67962;47.310;9.642;2024-03-06T13:52:08;8.10;73.50
78649;DHT22;67962;47.310;9.642;2024-03-06T13:54:39;8.00;74.10
78649;DHT22;67962;47.310;9.642;2024-03-06T13:57:10;8.00;75.00
78649;DHT22;67962;47.310;9.642;2024-03-06T13:59:36;8.00;75.60
78649;DHT22;67962;47.310;9.642;2024-03-06T14:02:03;8.10;75.40
78649;DHT22;67962;47.310;9.642;2024-03-06T14:04:29;8.10;74.20
78649;DHT22;67962;47.310;9.642;2024-03-06T14:06:56;8.20;74.10
78649;DHT22;67962;47.310;9.642;2024-03-06T14:09:25;8.30;74.50
78649;DHT22;67962;47.310;9.642;2024-03-06T14:11:51;8.30;75.00
78649;DHT22;67962;47.310;9.642;2024-03-06T14:14:17;8.20;75.80
78649;DHT22;67962;47.310;9.642;2024-03-06T14:16:43;8.30;75.60
78649;DHT22;67962;47.310;9.642;2024-03-06T14:19:09;8.30;75.90
78649;DHT22;67962;47.310;9.642;2024-03-06T14:21:36;8.30;75.80
78649;DHT22;67962;47.310;9.642;2024-03-06T14:24:02;8.30;76.30
78649;DHT22;67962;47.310;9.642;2024-03-06T14:26:34;8.20;76.30
78649;DHT22;67962;47.310;9.642;2024-03-06T14:29:01;8.20;76.50
78649;DHT22;67962;47.310;9.642;2024-03-06T14:31:32;8.20;76.80
78649;DHT22;67962;47.310;9.642;2024-03-06T14:33:58;8.20;76.70
78649;DHT22;67962;47.310;9.642;2024-03-06T14:36:24;8.20;76.70
78649;DHT22;67962;47.310;9.642;2024-03-06T14:38:51;8.20;76.80
78649;DHT22;67962;47.310;9.642;2024-03-06T14:41:18;8.20;77.20
78649;DHT22;67962;47.310;9.642;2024-03-06T14:43:44;8.10;76.50
78649;DHT22;67962;47.310;9.642;2024-03-06T14:46:10;8.10;76.40
78649;DHT22;67962;47.310;9.642;2024-03-06T14:48:38;8.10;76.70
78649;DHT22;67962;47.310;9.642;2024-03-06T14:51:03;8.10;76.60
78649;DHT22;67962;47.310;9.642;2024-03-06T14:53:29;8.10;76.50
78649;DHT22;67962;47.310;9.642;2024-03-06T14:55:56;8.20;77.00
78649;DHT22;67962;47.310;9.642;2024-03-06T14:58:22;8.20;76.10
78649;DHT22;67962;47.310;9.642;2024-03-06T15:00:49;8.10;76.10
78649;DHT22;67962;47.310;9.642;2024-03-06T15:03:14;8.00;76.20
78649;DHT22;67962;47.310;9.642;2024-03-06T15:05:40;7.90;76.00
78649;DHT22;67962;47.310;9.642;2024-03-06T15:08:06;7.80;74.90
78649;DHT22;67962;47.310;9.642;2024-03-06T15:10:31;7.70;76.20
78649;DHT22;67962;47.310;9.642;2024-03-06T15:12:58;7.70;77.20
78649;DHT22;67962;47.310;9.642;2024-03-06T15:15:24;7.60;76.70
78649;DHT22;67962;47.310;9.642;2024-03-06T15:17:49;7.50;76.60
78649;DHT22;67962;47.310;9.642;2024-03-06T15:20:15;7.60;77.30
78649;DHT22;67962;47.310;9.642;2024-03-06T15:22:43;7.60;77.40
78649;DHT22;67962;47.310;9.642;2024-03-06T15:25:10;7.70;77.60
78649;DHT22;67962;47.310;9.642;2024-03-06T15:27:40;7.70;77.50
78649;DHT22;67962;47.310;9.642;2024-03-06T15:30:07;7.60;76.40
78649;DHT22;67962;47.310;9.642;2024-03-06T15:32:36;7.60;76.70
78649;DHT22;67962;47.310;9.642;2024-03-06T15:35:02;7.70;77.20
78649;DHT22;67962;47.310;9.642;2024-03-06T15:37:29;7.70;77.20
78649;DHT22;67962;47.310;9.642;2024-03-06T15:39:56;7.70;76.90
78649;DHT22;67962;47.310;9.642;2024-03-06T15:42:22;7.60;77.60
78649;DHT22;67962;47.310;9.642;2024-03-06T15:44:49;7.50;78.10
78649;DHT22;67962;47.310;9.642;2024-03-06T15:47:16;7.50;78.40
78649;DHT22;67962;47.310;9.642;2024-03-06T15:49:43;7.60;78.60
78649;DHT22;67962;47.310;9.642;2024-03-06T15:52:10;7.60;78.10